Terminal Aerodrome Forecast
Issued by NWS

Home | Current Version | Previous Version | Text Only | Print | Product List | Glossary On
Versions: 1 2 3 4 5 6 7 8 9 10 11 12 13 14 15 16 17 18 19 20 21 22 23 24 25 26
000
FTPA31 PHFO 302341
TAFHNY
TAF
PHNY 302341Z 3100/3124 04020G25KT P6SM VCSH SCT015 SCT020
      TEMPO 3100/3104 SCT004 BKN020
     FM310400 05012G20KT P6SM VCSH SCT015 BKN035
     FM311900 05020G28KT P6SM VCSH SCT015 BKN035
     FM312300 05026G32KT P6SM VCSH SCT015 BKN035=

USA.gov is the U.S. government's official web portal to all federal, state and local government web resources and services.